LFLC/CFE METAR and TAF weather

Enter ICAO airport designator
Station Type Date Time Source
LFLC METAR 2024/05/29 00:00 UTC NOAA

LFLC 290000Z AUTO 17003KT 9999 FEW035 13/11 Q1019 NOSIG


Station Type Date Time Source
LFLC Decoded METAR 2024/05/29 00:00 UTC NOAA

Clermont-Ferrand, France (LFLC) 45-47N 003-10E 330M
May 28, 2024 - 08:00 PM EDT / 2024.05.29 0000 UTC
Wind: from the S (170 degrees) at 3 MPH (3 KT):0
Visibility: greater than 7 mile(s):0
Sky conditions: mostly clear
Temperature: 55 F (13 C)
Dew Point: 51 F (11 C)
Relative Humidity: 87%
Pressure (altimeter): 30.09 in. Hg (1019 hPa)
ob: LFLC 290000Z AUTO 17003KT 9999 FEW035 13/11 Q1019 NOSIG
cycle: 0

Station Type Date Time Source
LFLC TAF 2024/05/28 18:21 UTC NOAA